Time;durP1;ratioP1;P1;durP2;ratioP2;P2;SDS_P1;SDS_P2;PMS_P1;PMS_P2;Temp;Humidity;BMP_temperature;BMP_pressure;BME280_temperature;BME280_humidity;BME280_pressure;Samples;Min_cycle;Max_cycle;Signal;HPM_P1;HPM_P2
2023/04/08 00:01:23;;;;;;;16.75;11.82;;;;;;;12.14;82.35;101921.88;5087045;28;20043;-84
2023/04/08 00:03:48;;;;;;;16.45;11.63;;;;;;;11.76;82.59;101857.38;5091869;28;20027;-84
2023/04/08 00:06:15;;;;;;;16.63;11.95;;;;;;;11.88;82.62;101874.72;5093825;28;20024;-84
2023/04/08 00:08:40;;;;;;;15.60;10.73;;;;;;;12.10;82.75;101917.22;5092261;28;20024;-84
2023/04/08 00:11:06;;;;;;;16.20;11.50;;;;;;;11.91;82.54;101882.78;5092889;28;20024;-84
2023/04/08 00:13:31;;;;;;;15.73;11.52;;;;;;;11.90;82.59;101881.88;5091962;28;20472;-84
2023/04/08 00:15:57;;;;;;;13.75;10.50;;;;;;;11.84;82.50;101875.31;5089182;28;20799;-84
2023/04/08 00:18:23;;;;;;;15.45;10.55;;;;;;;11.84;82.78;101864.84;5069252;28;20041;-85
2023/04/08 00:20:49;;;;;;;14.32;11.07;;;;;;;11.78;82.91;101855.75;5089948;28;20108;-85
2023/04/08 00:23:15;;;;;;;16.90;10.73;;;;;;;11.99;82.41;101890.34;5059546;28;20502;-85
2023/04/08 00:25:40;;;;;;;13.77;9.95;;;;;;;11.92;82.46;101875.03;5088540;28;20543;-85
2023/04/08 00:28:06;;;;;;;15.27;11.13;;;;;;;11.90;82.45;101875.75;5089179;28;20244;-84
2023/04/08 00:30:32;;;;;;;15.38;11.23;;;;;;;11.84;82.18;101865.75;5091977;28;20472;-84
2023/04/08 00:32:57;;;;;;;17.80;12.35;;;;;;;11.86;82.08;101863.22;5074773;28;20036;-85
2023/04/08 00:35:23;;;;;;;16.23;11.90;;;;;;;11.71;82.05;101840.47;5091465;28;20031;-84
2023/04/08 00:37:49;;;;;;;17.17;10.98;;;;;;;11.99;82.13;101889.44;5073560;28;20063;-84
2023/04/08 00:40:14;;;;;;;14.57;10.40;;;;;;;11.75;82.11;101850.34;5084628;28;20035;-84
2023/04/08 00:42:40;;;;;;;16.45;11.27;;;;;;;11.95;82.00;101888.31;5092325;28;20560;-84
2023/04/08 00:45:07;;;;;;;16.13;11.13;;;;;;;11.63;81.88;101827.69;5092334;28;20036;-84
2023/04/08 00:47:32;;;;;;;;;;;;;;;12.13;82.16;101913.94;5090569;28;20578;-84
2023/04/08 00:49:58;;;;;;;13.20;9.80;;;;;;;11.70;81.96;101838.63;5074439;28;20385;-84
2023/04/08 00:52:23;;;;;;;14.65;10.95;;;;;;;11.71;81.70;101831.72;5088130;28;20033;-84
2023/04/08 00:54:49;;;;;;;15.25;10.90;;;;;;;11.90;82.08;101887.13;5085530;28;20032;-84
2023/04/08 00:57:15;;;;;;;15.05;10.60;;;;;;;11.91;82.21;101877.56;5073353;28;20024;-84
2023/04/08 00:59:41;;;;;;;16.30;11.43;;;;;;;11.96;82.40;101892.78;5074140;28;20042;-84
2023/04/08 01:02:28;;;;;;;14.70;11.30;;;;;;;12.05;82.20;101904.66;5085034;28;20032;-84
2023/04/08 01:04:57;;;;;;;15.93;11.50;;;;;;;12.01;82.09;101903.53;5089998;28;20111;-83
2023/04/08 01:07:34;;;;;;;17.13;11.57;;;;;;;12.00;82.17;101905.25;5071139;28;20071;-84
2023/04/08 01:10:05;;;;;;;15.50;11.18;;;;;;;12.01;81.87;101904.44;5072043;28;20485;-84
2023/04/08 01:12:32;;;;;;;15.98;11.48;;;;;;;12.00;81.45;101897.41;5073620;28;20051;-84
2023/04/08 01:15:10;;;;;;;14.38;10.82;;;;;;;11.97;82.04;101896.28;5073444;28;20028;-85
2023/04/08 01:17:36;;;;;;;13.40;10.32;;;;;;;11.96;81.52;101892.78;5072503;28;20035;-85
2023/04/08 01:20:03;;;;;;;;;;;;;;;12.09;81.54;101909.28;5074087;28;20028;-84
2023/04/08 01:22:53;;;;;;;14.57;10.00;;;;;;;12.04;81.48;101901.09;5073600;28;19971;-84
2023/04/08 01:25:44;;;;;;;12.40;9.60;;;;;;;11.88;81.61;101879.94;5073181;28;20032;-84
2023/04/08 01:28:12;;;;;;;14.48;10.57;;;;;;;11.94;81.01;101889.16;5075562;28;20040;-85
2023/04/08 01:30:39;;;;;;;15.30;10.60;;;;;;;12.01;81.58;101900.91;5067306;28;20674;-85
2023/04/08 01:33:05;;;;;;;14.45;10.82;;;;;;;11.87;81.27;101876.41;5100032;28;20022;-84
2023/04/08 01:35:32;;;;;;;15.95;11.50;;;;;;;12.00;80.97;101896.47;5075874;28;20028;-84
2023/04/08 01:37:59;;;;;;;14.68;11.20;;;;;;;12.04;80.86;101900.22;5062369;28;20028;-84
2023/04/08 01:40:25;;;;;;;16.45;10.75;;;;;;;11.86;81.49;101877.22;5073466;28;20024;-83
2023/04/08 01:42:53;;;;;;;16.10;10.68;;;;;;;11.93;80.97;101883.78;5072584;28;20070;-84
2023/04/08 01:45:19;;;;;;;15.20;9.93;;;;;;;11.91;81.20;101881.06;5069383;28;20032;-83
2023/04/08 01:47:46;;;;;;;;;;;;;;;12.02;81.07;101890.56;5072512;28;20084;-84
2023/04/08 01:50:13;;;;;;;13.52;9.75;;;;;;;11.89;81.11;101885.28;5067083;28;20002;-84
2023/04/08 01:52:40;;;;;;;15.20;10.85;;;;;;;11.85;81.18;101879.72;5089211;28;20457;-84
2023/04/08 01:55:06;;;;;;;14.75;10.85;;;;;;;11.61;80.80;101838.03;5067590;28;20059;-84
2023/04/08 01:57:34;;;;;;;14.73;11.00;;;;;;;11.91;80.80;101888.03;5072863;28;20052;-84
2023/04/08 02:00:03;;;;;;;13.75;10.30;;;;;;;11.89;80.64;101882.69;5089105;28;20043;-85
2023/04/08 02:02:29;;;;;;;13.52;10.57;;;;;;;11.65;80.70;101849.63;5083015;28;20036;-84
2023/04/08 02:04:55;;;;;;;12.82;9.48;;;;;;;11.72;80.59;101862.31;5072204;28;20032;-84
2023/04/08 02:07:20;;;;;;;13.60;10.07;;;;;;;11.68;80.30;101850.72;5089963;28;20109;-84
2023/04/08 02:09:46;;;;;;;13.63;9.88;;;;;;;11.60;80.56;101828.38;5090645;28;20028;-84
2023/04/08 02:12:12;;;;;;;14.40;9.77;;;;;;;11.53;80.61;101836.59;5090679;28;20040;-84
2023/04/08 02:14:37;;;;;;;14.50;9.88;;;;;;;11.94;80.72;101902.22;5090384;28;20028;-84
2023/04/08 02:17:12;;;;;;;14.27;10.30;;;;;;;11.94;80.38;101907.47;5067820;28;20776;-84
2023/04/08 02:19:48;;;;;;;15.95;10.70;;;;;;;11.97;80.56;101912.00;5062196;28;20047;-83
2023/04/08 02:22:29;;;;;;;15.73;9.68;;;;;;;11.87;80.79;101899.97;5074760;28;20088;-84
2023/04/08 02:24:55;;;;;;;14.48;10.10;;;;;;;11.92;80.38;101903.84;5072004;28;20030;-84
2023/04/08 02:27:23;;;;;;;13.98;9.82;;;;;;;11.69;80.55;101863.00;5089048;28;20027;-84
2023/04/08 02:29:50;;;;;;;14.95;10.25;;;;;;;11.77;80.00;101876.63;5071736;28;20032;-84
2023/04/08 02:32:15;;;;;;;;;;;;;;;11.99;80.09;101907.78;5071743;28;20715;-84
2023/04/08 02:34:41;;;;;;;15.23;9.52;;;;;;;11.78;79.80;101878.41;5054054;28;19919;-84
2023/04/08 02:37:08;;;;;;;13.88;9.48;;;;;;;11.72;80.06;101876.28;5070528;28;20028;-84
2023/04/08 02:39:33;;;;;;;;;;;;;;;11.95;80.00;101904.03;5082018;28;20081;-84
2023/04/08 02:41:59;;;;;;;14.77;9.50;;;;;;;11.65;80.34;101861.00;5062714;28;19916;-84
2023/04/08 02:44:25;;;;;;;13.23;10.00;;;;;;;11.77;79.83;101887.97;5040323;28;20398;-84
2023/04/08 02:46:50;;;;;;;15.40;10.90;;;;;;;11.59;79.95;101853.63;5070115;28;20020;-84
2023/04/08 02:49:16;;;;;;;12.65;10.18;;;;;;;11.61;80.02;101856.34;5069715;28;20052;-84
2023/04/08 02:51:41;;;;;;;14.10;9.95;;;;;;;11.48;80.07;101836.31;5070737;28;20024;-85
2023/04/08 02:54:07;;;;;;;14.52;9.85;;;;;;;11.61;79.64;101851.13;5051087;28;20033;-84
2023/04/08 02:56:32;;;;;;;14.38;10.48;;;;;;;11.50;79.77;101836.41;5069378;28;20033;-85
2023/04/08 02:58:58;;;;;;;13.68;8.57;;;;;;;11.49;79.72;101843.34;5050841;28;20032;-85
2023/04/08 03:01:23;;;;;;;14.77;11.27;;;;;;;11.46;79.74;101842.25;5069707;28;20043;-85
2023/04/08 03:03:49;;;;;;;13.80;9.98;;;;;;;11.49;79.79;101851.19;5036349;28;20035;-85
2023/04/08 03:06:15;;;;;;;13.40;9.88;;;;;;;11.85;79.57;101913.75;5067826;28;20498;-85
2023/04/08 03:08:41;;;;;;;12.65;9.25;;;;;;;11.80;79.70;101898.63;5037998;28;20056;-83
2023/04/08 03:11:06;;;;;;;12.85;9.32;;;;;;;11.86;79.82;101919.09;5062504;28;20486;-83
2023/04/08 03:13:33;;;;;;;12.05;9.20;;;;;;;11.78;79.51;101899.34;5051709;28;20024;-83
2023/04/08 03:15:58;;;;;;;15.23;10.05;;;;;;;11.89;79.51;101924.56;5050409;28;20060;-83
2023/04/08 03:18:24;;;;;;;13.82;9.70;;;;;;;11.88;79.83;101921.81;5051020;28;20515;-84
2023/04/08 03:20:50;;;;;;;12.43;8.85;;;;;;;11.44;79.44;101844.75;5052347;28;20032;-83
2023/04/08 03:23:15;;;;;;;10.48;8.32;;;;;;;11.60;79.63;101876.38;5052034;28;20016;-83
2023/04/08 03:25:41;;;;;;;12.27;9.00;;;;;;;11.35;79.46;101837.19;5068480;28;20063;-83
2023/04/08 03:28:06;;;;;;;11.95;8.35;;;;;;;11.65;79.94;101905.47;5065589;28;20044;-83
2023/04/08 03:30:32;;;;;;;15.68;9.65;;;;;;;11.43;79.72;101860.34;5067229;28;20170;-83
2023/04/08 03:32:57;;;;;;;17.10;10.93;;;;;;;11.54;79.92;101886.44;5078045;28;20690;-83
2023/04/08 03:35:23;;;;;;;14.20;9.93;;;;;;;11.46;79.66;101871.91;5074060;28;20025;-83
2023/04/08 03:37:48;;;;;;;15.25;9.88;;;;;;;11.63;80.00;101909.69;5067062;28;20110;-83
2023/04/08 03:40:14;;;;;;;15.13;9.52;;;;;;;11.48;79.81;101879.88;5070462;28;20074;-83
2023/04/08 03:42:40;;;;;;;16.92;10.23;;;;;;;11.62;79.74;101907.91;5050155;28;20044;-83
2023/04/08 03:45:06;;;;;;;15.98;10.30;;;;;;;11.79;79.58;101946.56;5070263;28;20086;-83
2023/04/08 03:47:32;;;;;;;13.00;9.45;;;;;;;11.58;80.05;101914.63;5040283;28;20408;-83
2023/04/08 03:49:58;;;;;;;13.95;10.13;;;;;;;11.73;79.86;101943.53;5051194;28;20059;-83
2023/04/08 03:52:24;;;;;;;14.38;10.50;;;;;;;11.79;79.73;101954.44;5069283;28;20033;-84
2023/04/08 03:54:49;;;;;;;14.60;10.38;;;;;;;11.63;79.41;101927.09;5046698;28;20043;-84
2023/04/08 03:57:15;;;;;;;12.93;8.88;;;;;;;11.62;79.39;101928.81;5068828;28;20035;-84
2023/04/08 03:59:40;;;;;;;13.38;9.73;;;;;;;11.63;79.52;101934.97;5045513;28;20036;-84
2023/04/08 04:02:06;;;;;;;12.98;9.05;;;;;;;11.38;79.58;101894.03;5045483;28;20037;-83
2023/04/08 04:04:38;;;;;;;14.80;10.35;;;;;;;11.71;79.87;101957.31;5051992;28;20040;-84
2023/04/08 04:07:03;;;;;;;15.23;10.07;;;;;;;11.22;79.50;101879.00;5087487;28;20043;-84
2023/04/08 04:09:29;;;;;;;15.48;10.40;;;;;;;11.72;79.57;101974.81;5077871;28;20021;-84
2023/04/08 04:11:55;;;;;;;14.68;9.93;;;;;;;11.42;79.92;101935.28;5049349;28;20474;-84
2023/04/08 04:14:20;;;;;;;11.40;8.75;;;;;;;11.26;79.63;101903.63;5067760;28;20391;-85
2023/04/08 04:16:46;;;;;;;13.38;9.50;;;;;;;11.49;79.76;101937.50;5054856;28;20490;-84
2023/04/08 04:19:11;;;;;;;13.60;9.70;;;;;;;11.53;79.63;101941.25;5069654;28;20074;-84
2023/04/08 04:21:37;;;;;;;14.45;9.70;;;;;;;11.56;79.24;101957.19;5063871;28;20037;-84
2023/04/08 04:24:03;;;;;;;12.82;9.50;;;;;;;11.27;79.08;101893.28;5037146;28;20035;-83
2023/04/08 04:26:28;;;;;;;15.48;10.23;;;;;;;11.25;78.92;101899.22;5072142;28;20112;-84
2023/04/08 04:28:54;;;;;;;14.02;10.02;;;;;;;11.35;79.34;101918.25;5053939;28;20039;-84
2023/04/08 04:31:21;;;;;;;14.75;10.85;;;;;;;11.41;79.19;101942.22;5072470;28;20032;-84
2023/04/08 04:33:48;;;;;;;11.32;9.00;;;;;;;11.72;78.90;101995.75;5048981;28;20032;-84
2023/04/08 04:36:14;;;;;;;13.50;9.90;;;;;;;11.43;79.56;101944.97;5071213;28;20035;-83
2023/04/08 04:38:40;;;;;;;;;;;;;;;11.70;79.30;101993.03;5052707;28;20025;-83
2023/04/08 04:41:05;;;;;;;12.75;9.00;;;;;;;11.68;79.46;101988.50;5074064;28;19913;-84
2023/04/08 04:43:31;;;;;;;14.05;9.73;;;;;;;11.59;79.60;101987.06;5096501;28;20077;-83
2023/04/08 04:45:57;;;;;;;14.45;9.20;;;;;;;11.39;79.61;101959.53;5090183;28;20036;-84
2023/04/08 04:48:22;;;;;;;12.45;9.48;;;;;;;11.36;79.38;101951.44;5070748;28;20671;-84
2023/04/08 04:50:55;;;;;;;16.17;9.75;;;;;;;11.55;79.12;101976.28;5088779;28;20036;-83
2023/04/08 04:53:21;;;;;;;12.52;8.90;;;;;;;11.50;79.08;101973.34;5098459;28;20031;-83
2023/04/08 04:55:46;;;;;;;15.55;10.43;;;;;;;11.37;79.50;101950.66;5078049;28;20401;-84
2023/04/08 04:58:12;;;;;;;11.30;9.23;;;;;;;11.53;79.37;101978.78;5088736;28;20032;-84
2023/04/08 05:00:38;;;;;;;15.00;9.48;;;;;;;11.60;79.17;102007.19;5087161;28;20492;-83
2023/04/08 05:03:03;;;;;;;12.23;9.13;;;;;;;11.24;79.63;101937.53;5087041;28;20632;-83
2023/04/08 05:05:29;;;;;;;14.43;9.90;;;;;;;11.40;79.31;101971.78;5086992;28;20043;-84
2023/04/08 05:07:54;;;;;;;15.35;9.63;;;;;;;11.06;79.48;101910.09;5072829;28;20519;-83
2023/04/08 05:10:20;;;;;;;12.18;8.48;;;;;;;11.57;79.78;101990.38;5075982;28;20035;-83
2023/04/08 05:12:46;;;;;;;12.82;9.00;;;;;;;11.59;79.51;101996.63;5095477;28;20028;-84
2023/04/08 05:15:11;;;;;;;11.18;8.63;;;;;;;11.47;79.42;101977.44;5099429;28;20023;-83
2023/04/08 05:17:37;;;;;;;12.88;9.30;;;;;;;11.35;79.66;101956.59;5088258;28;20177;-83
2023/04/08 05:20:03;;;;;;;10.07;8.10;;;;;;;11.39;79.84;101966.47;5089331;28;20028;-84
2023/04/08 05:22:29;;;;;;;14.10;8.80;;;;;;;11.48;79.78;101976.66;5067324;28;20049;-82
2023/04/08 05:24:54;;;;;;;12.20;9.45;;;;;;;11.57;79.95;101998.22;5068813;28;20039;-82
2023/04/08 05:27:20;;;;;;;11.88;9.07;;;;;;;11.56;79.94;101997.31;5080850;28;20040;-84
2023/04/08 05:29:46;;;;;;;11.60;8.85;;;;;;;11.57;79.86;101993.88;5089214;28;20066;-84
2023/04/08 05:32:12;;;;;;;11.32;8.35;;;;;;;11.35;79.58;101967.94;5090432;28;20382;-83
2023/04/08 05:34:37;;;;;;;12.32;8.98;;;;;;;11.14;79.79;101933.34;5092084;28;20032;-84
2023/04/08 05:37:03;;;;;;;12.55;8.77;;;;;;;11.46;80.14;101997.47;5085427;28;20043;-85
2023/04/08 05:39:28;;;;;;;12.98;9.23;;;;;;;11.47;80.12;101994.06;5087297;28;20051;-84
2023/04/08 05:41:54;;;;;;;13.88;8.10;;;;;;;11.09;80.35;101934.75;5088986;28;20040;-84
2023/04/08 05:44:19;;;;;;;12.18;9.05;;;;;;;11.25;80.35;101967.19;5089262;28;20497;-85
2023/04/08 05:46:45;;;;;;;13.30;8.85;;;;;;;11.52;79.94;102012.69;5086330;28;20515;-85
2023/04/08 05:49:11;;;;;;;11.60;8.30;;;;;;;11.54;79.75;102016.34;5081577;28;20032;-83
2023/04/08 05:51:37;;;;;;;12.93;8.65;;;;;;;11.36;79.92;101979.31;5079368;28;20115;-83
2023/04/08 05:54:04;;;;;;;11.20;8.48;;;;;;;11.45;80.27;101995.66;5086131;28;20117;-83
2023/04/08 05:56:31;;;;;;;10.32;8.20;;;;;;;11.29;79.83;101970.13;5057686;28;20029;-84
2023/04/08 05:58:57;;;;;;;12.55;8.70;;;;;;;11.03;79.96;101928.16;5076140;28;20032;-84
2023/04/08 06:01:22;;;;;;;12.70;8.88;;;;;;;11.09;80.16;101952.13;5089214;28;20437;-83
2023/04/08 06:03:48;;;;;;;11.18;8.32;;;;;;;11.47;80.35;102020.22;5088195;28;20040;-83
2023/04/08 06:06:14;;;;;;;11.90;8.40;;;;;;;11.29;80.31;101993.66;5091689;28;20428;-83
2023/04/08 06:08:40;;;;;;;15.27;8.63;;;;;;;11.44;80.53;102009.53;5086598;28;20027;-84
2023/04/08 06:11:21;;;;;;;11.43;8.45;;;;;;;10.97;80.46;101939.09;5072246;28;20032;-86
2023/04/08 06:13:49;;;;;;;11.45;8.27;;;;;;;11.52;80.27;102034.53;5075257;28;20046;-86
2023/04/08 06:16:16;;;;;;;10.38;8.00;;;;;;;11.05;80.45;101944.88;5067113;28;20028;-84
2023/04/08 06:18:42;;;;;;;13.02;8.57;;;;;;;11.55;80.67;102036.44;5052032;28;20036;-85
2023/04/08 06:21:07;;;;;;;10.77;7.88;;;;;;;11.56;80.78;102028.72;5069184;28;20508;-84
2023/04/08 06:23:33;;;;;;;9.45;7.65;;;;;;;11.30;80.28;101985.03;5078537;28;20040;-84
2023/04/08 06:25:59;;;;;;;11.90;8.05;;;;;;;11.58;80.22;102037.56;5054265;28;20115;-85
2023/04/08 06:28:25;;;;;;;10.38;8.18;;;;;;;11.47;80.40;102011.44;5088695;28;20035;-84
2023/04/08 06:30:50;;;;;;;10.60;7.82;;;;;;;11.34;80.33;101992.28;5078017;28;20544;-84
2023/04/08 06:33:16;;;;;;;9.30;7.68;;;;;;;11.15;80.34;101965.63;5082440;28;20128;-85
2023/04/08 06:35:41;;;;;;;9.98;7.53;;;;;;;11.49;80.16;102022.94;5085568;28;20513;-84
2023/04/08 06:38:07;;;;;;;10.75;7.90;;;;;;;11.22;79.97;101983.59;5062105;28;20036;-85
2023/04/08 06:40:33;;;;;;;9.63;7.55;;;;;;;11.33;80.68;102011.41;5075471;28;20040;-83
2023/04/08 06:42:58;;;;;;;9.68;7.75;;;;;;;11.31;80.43;102013.00;5058932;28;20505;-85
2023/04/08 06:45:24;;;;;;;10.15;7.65;;;;;;;11.50;80.42;102037.84;5093947;28;20063;-85
2023/04/08 06:47:50;;;;;;;9.85;7.22;;;;;;;11.15;80.38;101970.84;5086018;28;20100;-85
2023/04/08 06:50:16;;;;;;;9.73;7.47;;;;;;;11.23;80.42;102001.06;5088120;28;20059;-85
2023/04/08 06:52:41;;;;;;;9.77;7.82;;;;;;;11.11;80.37;101971.44;5084324;28;20032;-85
2023/04/08 06:55:07;;;;;;;9.57;7.68;;;;;;;11.18;80.28;101992.00;5087610;28;20024;-86
2023/04/08 06:57:33;;;;;;;10.27;7.00;;;;;;;11.07;80.46;101970.34;5049981;28;20079;-87
2023/04/08 06:59:59;;;;;;;9.30;7.53;;;;;;;11.24;80.59;101995.06;5084723;28;20036;-86
2023/04/08 07:02:25;;;;;;;9.00;7.05;;;;;;;11.02;80.52;101949.88;5091973;28;20024;-87
2023/04/08 07:04:50;;;;;;;10.82;7.80;;;;;;;11.44;80.11;102026.94;5068765;28;20089;-87
2023/04/08 07:07:16;;;;;;;9.80;7.60;;;;;;;11.26;80.14;101995.16;5081264;28;20028;-86
2023/04/08 07:09:44;;;;;;;9.75;7.25;;;;;;;11.07;79.99;101958.94;5082870;28;20396;-87
2023/04/08 07:12:11;;;;;;;9.68;7.47;;;;;;;11.28;80.17;102004.94;5062574;28;20040;-87
2023/04/08 07:14:36;;;;;;;;;;;;;;;11.59;80.14;102044.63;5068450;28;20028;-86
2023/04/08 07:17:02;;;;;;;10.18;7.43;;;;;;;11.49;79.76;102029.06;5074523;28;19919;-86
2023/04/08 07:19:27;;;;;;;10.88;7.85;;;;;;;11.51;79.82;102037.94;5070219;28;20811;-86
2023/04/08 07:21:53;;;;;;;10.50;7.07;;;;;;;11.27;79.98;102000.50;5093111;28;20550;-87
2023/04/08 07:24:20;;;;;;;9.98;7.75;;;;;;;11.32;80.32;102011.28;5068423;28;20028;-87
2023/04/08 07:26:46;;;;;;;11.90;7.70;;;;;;;11.34;80.42;102013.19;5083472;28;20405;-88
2023/04/08 07:29:12;;;;;;;11.32;7.43;;;;;;;11.44;80.20;102027.84;5084653;28;20107;-84
2023/04/08 07:31:37;;;;;;;10.43;7.88;;;;;;;11.54;80.17;102050.34;5079808;28;20039;-84
2023/04/08 07:34:03;;;;;;;10.13;7.47;;;;;;;11.18;79.74;101987.69;5094646;28;20626;-88
2023/04/08 07:36:29;;;;;;;9.50;7.35;;;;;;;11.40;80.11;102016.25;5079699;28;20024;-82
2023/04/08 07:38:54;;;;;;;10.40;7.40;;;;;;;11.41;80.06;102011.94;5082926;28;20418;-84
2023/04/08 07:41:20;;;;;;;8.77;6.88;;;;;;;11.28;79.75;102007.56;5069940;28;20036;-84
2023/04/08 07:43:46;;;;;;;9.35;7.15;;;;;;;11.41;79.71;102028.53;5093000;28;20114;-84
2023/04/08 07:46:11;;;;;;;8.10;6.72;;;;;;;11.38;79.86;102033.53;5086633;28;20486;-86
2023/04/08 07:48:37;;;;;;;8.40;7.05;;;;;;;11.39;79.25;102030.13;5067708;28;20043;-87
2023/04/08 07:51:08;;;;;;;9.48;7.07;;;;;;;11.31;79.57;102015.59;5070008;28;20034;-86
2023/04/08 07:53:34;;;;;;;9.50;6.85;;;;;;;11.42;79.86;102037.28;5088254;28;20673;-86
2023/04/08 07:56:00;;;;;;;9.30;7.18;;;;;;;11.43;79.74;102046.97;5091154;28;20523;-85
2023/04/08 07:58:25;;;;;;;;;;;;;;;11.59;80.19;102072.50;5082635;28;20036;-86
2023/04/08 08:00:51;;;;;;;10.38;6.78;;;;;;;11.38;79.16;102030.91;5088544;28;19916;-86
2023/04/08 08:03:17;;;;;;;8.32;6.63;;;;;;;11.44;80.07;102047.88;5075349;28;20032;-86
2023/04/08 08:05:43;;;;;;;9.55;6.57;;;;;;;11.48;79.89;102062.97;5067276;28;20463;-85
2023/04/08 08:08:10;;;;;;;9.20;7.03;;;;;;;11.53;79.14;102066.81;5067215;28;20032;-85
2023/04/08 08:10:40;;;;;;;9.70;6.57;;;;;;;11.48;79.93;102070.84;5080293;28;20029;-85
2023/04/08 08:13:07;;;;;;;8.18;6.68;;;;;;;11.55;79.58;102078.31;5093510;28;20031;-86
2023/04/08 08:15:32;;;;;;;9.32;6.97;;;;;;;11.45;79.70;102061.06;5089163;28;20020;-86
2023/04/08 08:17:58;;;;;;;8.85;6.82;;;;;;;11.52;79.38;102081.63;5091951;28;20123;-86
2023/04/08 08:20:24;;;;;;;8.30;6.65;;;;;;;11.29;79.40;102045.97;5069155;28;20040;-85
2023/04/08 08:22:49;;;;;;;8.75;6.72;;;;;;;11.44;80.16;102067.09;5073355;28;20032;-85
2023/04/08 08:25:16;;;;;;;8.00;6.70;;;;;;;11.32;79.80;102035.72;5087359;28;20040;-84
2023/04/08 08:27:42;;;;;;;8.60;6.75;;;;;;;11.54;79.60;102077.41;5087455;28;20024;-86
2023/04/08 08:30:08;;;;;;;9.48;6.55;;;;;;;11.68;80.09;102093.16;5085586;28;20032;-87
2023/04/08 08:32:34;;;;;;;9.15;6.78;;;;;;;11.38;79.80;102050.94;5069937;28;20049;-86
2023/04/08 08:35:01;;;;;;;8.70;6.88;;;;;;;11.55;79.51;102078.31;5087092;28;20077;-87
2023/04/08 08:37:27;;;;;;;9.13;7.07;;;;;;;11.65;78.88;102090.34;5070418;28;20032;-87
2023/04/08 08:39:53;;;;;;;9.25;6.65;;;;;;;11.66;79.33;102079.97;5093780;28;20038;-85
2023/04/08 08:42:23;;;;;;;7.38;6.38;;;;;;;11.69;79.63;102097.63;5059560;28;20048;-85
2023/04/08 08:44:49;;;;;;;7.88;6.35;;;;;;;11.56;78.87;102074.91;5091353;28;20528;-85
2023/04/08 08:47:16;;;;;;;10.25;7.15;;;;;;;11.64;78.76;102089.44;5074914;28;20056;-85
2023/04/08 08:49:41;;;;;;;;;;;;;;;11.69;78.64;102092.38;5055143;28;20405;-83
2023/04/08 08:52:07;;;;;;;9.85;6.25;;;;;;;11.58;78.49;102078.53;5075876;28;19920;-83
2023/04/08 08:54:32;;;;;;;7.07;6.25;;;;;;;11.79;78.92;102093.13;5087862;28;20040;-83
2023/04/08 08:56:58;;;;;;;7.60;6.20;;;;;;;11.43;78.47;102039.13;5067049;28;20039;-85
2023/04/08 08:59:24;;;;;;;7.97;6.38;;;;;;;11.67;78.15;102081.78;5091819;28;20081;-86
2023/04/08 09:01:50;;;;;;;8.38;6.78;;;;;;;11.71;78.13;102091.69;5083415;28;20028;-86
2023/04/08 09:04:18;;;;;;;9.65;6.60;;;;;;;11.24;78.00;102009.81;5087889;28;20558;-86
2023/04/08 09:06:51;;;;;;;7.75;6.35;;;;;;;11.69;78.29;102082.81;5077197;28;20036;-86
2023/04/08 09:09:18;;;;;;;8.73;6.80;;;;;;;11.57;78.25;102068.84;5051925;28;20043;-86
2023/04/08 09:11:45;;;;;;;8.40;6.32;;;;;;;11.19;78.40;101994.72;5087057;28;20474;-86
2023/04/08 09:14:18;;;;;;;8.07;6.45;;;;;;;11.71;78.66;102086.44;5068231;28;20489;-85
2023/04/08 09:16:44;;;;;;;8.05;6.35;;;;;;;11.53;78.65;102048.50;5070518;28;20477;-86
2023/04/08 09:19:10;;;;;;;8.20;6.13;;;;;;;11.54;78.17;102047.72;5072641;28;20031;-86
2023/04/08 09:21:37;;;;;;;7.65;6.10;;;;;;;11.77;78.26;102086.88;5071542;28;20052;-86
2023/04/08 09:24:02;;;;;;;7.30;5.88;;;;;;;11.39;78.14;102019.69;5067283;28;20172;-87
2023/04/08 09:26:31;;;;;;;7.90;6.03;;;;;;;11.31;78.13;102001.63;5063952;28;20474;-87
2023/04/08 09:29:02;;;;;;;8.32;6.28;;;;;;;11.77;78.20;102078.13;5059178;28;20032;-85
2023/04/08 09:31:30;;;;;;;8.27;6.82;;;;;;;11.73;77.65;102077.00;5076224;28;20024;-86
2023/04/08 09:34:01;;;;;;;7.95;6.38;;;;;;;11.78;78.13;102059.00;5070181;28;20042;-85
2023/04/08 09:36:27;;;;;;;7.22;6.07;;;;;;;11.83;77.74;102065.44;5071144;28;20089;-86
2023/04/08 09:38:53;;;;;;;;;;;;;;;11.84;77.74;102069.00;5075922;28;20404;-86
2023/04/08 09:41:20;;;;;;;8.07;6.50;;;;;;;11.71;77.76;102046.28;5068239;28;19921;-85
2023/04/08 09:44:06;;;;;;;7.80;6.32;;;;;;;11.70;78.20;102047.97;5083225;28;20027;-86
2023/04/08 09:46:51;;;;;;;8.57;6.72;;;;;;;11.94;77.85;102063.63;5066456;28;20029;-85
2023/04/08 09:49:26;;;;;;;8.27;6.50;;;;;;;11.80;77.98;102066.16;5089714;28;20034;-86
2023/04/08 09:52:10;;;;;;;9.18;6.30;;;;;;;11.78;77.70;102059.91;5076265;28;20055;-86
2023/04/08 09:55:04;;;;;;;7.70;5.95;;;;;;;11.55;78.15;102016.41;5068339;28;20036;-87
2023/04/08 09:57:53;;;;;;;8.50;6.15;;;;;;;11.70;78.78;102062.78;5070800;28;20463;-87
2023/04/08 10:00:21;;;;;;;8.50;6.35;;;;;;;11.64;78.09;102033.56;5086294;28;20113;-86
2023/04/08 10:03:05;;;;;;;8.50;6.97;;;;;;;11.76;78.57;102057.97;5091736;28;20024;-87
2023/04/08 10:05:31;;;;;;;8.60;6.40;;;;;;;11.70;78.69;102054.94;5085255;28;20031;-87
2023/04/08 10:07:56;;;;;;;9.65;6.72;;;;;;;11.52;79.42;102029.31;5071653;28;20638;-86
2023/04/08 10:10:37;;;;;;;12.20;6.35;;;;;;;11.59;79.55;102047.22;5098832;28;20032;-87
2023/04/08 10:13:03;;;;;;;9.98;6.55;;;;;;;11.60;79.58;102050.78;5049958;28;20152;-86
2023/04/08 10:15:33;;;;;;;7.53;6.25;;;;;;;11.60;79.88;102058.63;5061809;28;20189;-86
2023/04/08 10:18:02;;;;;;;12.07;7.07;;;;;;;11.69;80.29;102068.84;5071509;28;20036;-86
2023/04/08 10:20:33;;;;;;;7.40;6.25;;;;;;;11.73;80.17;102069.16;5085333;28;20032;-86
2023/04/08 10:23:00;;;;;;;10.27;6.75;;;;;;;11.52;80.20;102042.38;5088919;28;20052;-86
2023/04/08 10:25:36;;;;;;;10.65;7.10;;;;;;;11.76;80.44;102081.53;5072887;28;20119;-86
2023/04/08 10:28:16;;;;;;;9.73;6.47;;;;;;;11.77;80.39;102067.66;5057328;28;20485;-86
2023/04/08 10:30:45;;;;;;;9.50;6.25;;;;;;;11.77;80.59;102068.56;5083325;28;20113;-87
2023/04/08 10:33:22;;;;;;;8.48;6.55;;;;;;;11.73;80.79;102049.94;5071661;28;20039;-87
2023/04/08 10:35:48;;;;;;;9.43;6.13;;;;;;;11.66;80.89;102035.47;5073231;28;20020;-86
2023/04/08 10:38:15;;;;;;;12.88;6.78;;;;;;;11.73;80.71;102039.47;5089804;28;20034;-86
2023/04/08 10:40:42;;;;;;;8.88;6.60;;;;;;;11.72;81.05;102040.25;5067383;28;20032;-87
2023/04/08 10:43:12;;;;;;;9.45;7.00;;;;;;;11.85;81.33;102058.59;5067877;28;20048;-87
2023/04/08 10:45:39;;;;;;;10.23;6.95;;;;;;;11.56;81.40;102001.66;5073224;28;20039;-87
2023/04/08 10:48:17;;;;;;;10.60;6.32;;;;;;;11.50;81.43;101980.28;5091264;28;20020;-87
2023/04/08 10:50:51;;;;;;;9.27;6.07;;;;;;;11.81;81.75;102036.56;5067688;28;20035;-86
2023/04/08 10:53:17;;;;;;;10.63;6.78;;;;;;;11.72;81.21;102016.69;5073555;28;20059;-86
2023/04/08 10:55:43;;;;;;;10.20;6.80;;;;;;;11.85;81.47;102032.44;5069318;28;20451;-86
2023/04/08 10:58:10;;;;;;;10.35;6.47;;;;;;;11.61;81.74;101989.78;5054434;28;20493;-87
2023/04/08 11:00:39;;;;;;;8.68;6.40;;;;;;;11.65;81.63;102001.38;5072884;28;20039;-87
2023/04/08 11:03:11;;;;;;;9.38;6.32;;;;;;;11.74;82.12;102010.75;5094181;28;20051;-86
2023/04/08 11:05:37;;;;;;;9.20;6.70;;;;;;;11.92;82.38;102042.56;5070664;28;20028;-87
2023/04/08 11:08:05;;;;;;;8.40;6.28;;;;;;;11.97;82.17;102043.78;5084130;28;20028;-86
2023/04/08 11:10:36;;;;;;;9.13;6.80;;;;;;;11.49;81.93;101957.53;5072496;28;20028;-86
2023/04/08 11:13:02;;;;;;;9.18;5.95;;;;;;;11.76;82.22;102001.31;5072415;28;20736;-86
2023/04/08 11:15:29;;;;;;;;;;;;;;;12.02;82.09;102041.47;5072170;28;20028;-85
2023/04/08 11:17:55;;;;;;;9.63;6.40;;;;;;;11.71;82.25;101988.72;5093564;28;20361;-85
2023/04/08 11:20:20;;;;;;;;;;;;;;;12.07;82.13;102031.34;5092395;28;20290;-85
2023/04/08 11:22:46;;;;;;;7.38;5.90;;;;;;;12.04;81.93;102025.88;5075151;28;19919;-85